Accueil
METAR-TAF:

METAR-TAF

Aéroports :

Paganella, Italie

latitude: 46-09N, longitude: 011-02E, altitude: 2125 m

Observation

Le bulletin a été fait il y a 49 minutes, à 17:55 UTC
Vent 8 kt de sud/sud-ouest
Température 8°C
Humidité 66%
Pression 1016 hPa
Visibilité 10 km ou plus
Quelques nuages à une hauteur de 200 ft, Cumulus congestus.
Nuages épars à une hauteur de 1500 ft

METAR: LIVP 191755Z 21008KT 9999 FEW002TCU SCT015 08/02 Q1016

Heure: 20:44 (18:44 UTC)


TAF: absent

Observations et prévisions météorologiques de plus de 4000 aéroports (messages METAR et TAF).

Les stations disponibles sont représentées par des disques jaunes et rouges sur la carte.

Passer la souris dessus pour voir le nom de la station.

Cliquer dessus pour voir les observations et prévisions météorologiques.

Pour changer de carte: cliquez sur les boutons verts avec une croix noire pour zoomer, sur le bouton vert avec un tiret pour effectuer un zoom arrière, ou sur les flèches vertes pour les cartes adjacentes.


METAR-TAF: